createdAt,value
2019-05-10T00:00:55.683Z,99691.67
2019-05-10T00:03:41.839Z,99688.88
2019-05-10T00:06:30.181Z,99690.45
2019-05-10T00:08:57.876Z,99688.81
2019-05-10T00:11:27.993Z,99683.68
2019-05-10T00:13:58.065Z,99693.94
2019-05-10T00:16:26.944Z,99691.22
2019-05-10T00:18:55.361Z,99702.58
2019-05-10T00:21:23.822Z,99701.73
2019-05-10T00:23:52.527Z,99707.16
2019-05-10T00:26:22.510Z,99704.45
2019-05-10T00:28:51.014Z,99705.51
2019-05-10T00:31:19.488Z,99708.73
2019-05-10T00:33:47.939Z,99705.66
2019-05-10T00:36:18.952Z,99707.23
2019-05-10T00:38:47.447Z,99703.09
2019-05-10T00:41:17.416Z,99703.30
2019-05-10T00:43:45.905Z,99705.39
2019-05-10T00:46:14.356Z,99706.75
2019-05-10T00:48:44.278Z,99704.55
2019-05-10T00:51:16.050Z,99707.58
2019-05-10T00:53:44.546Z,99709.75
2019-05-10T00:56:13.037Z,99712.16
2019-05-10T00:58:41.466Z,99720.81
2019-05-10T01:01:10.578Z,99720.51
2019-05-10T01:03:41.099Z,99719.70
2019-05-10T01:06:11.105Z,99717.91
2019-05-10T01:08:41.009Z,99724.68
2019-05-10T01:11:10.957Z,99728.13
2019-05-10T01:13:39.454Z,99731.59
2019-05-10T01:16:07.890Z,99740.23
2019-05-10T01:18:37.884Z,99732.33
2019-05-10T01:21:07.788Z,99737.23
2019-05-10T01:23:36.206Z,99739.94
2019-05-10T01:26:04.755Z,99743.16
2019-05-10T01:28:33.172Z,99738.50
2019-05-10T01:31:01.580Z,99741.51
2019-05-10T01:33:31.578Z,99739.31
2019-05-10T01:35:59.985Z,99739.86
2019-05-10T01:38:28.431Z,99737.45
2019-05-10T01:40:56.837Z,99743.16
2019-05-10T01:43:25.311Z,99745.88
2019-05-10T01:45:53.749Z,99747.98
2019-05-10T01:48:22.196Z,99761.20
2019-05-10T01:50:50.630Z,99763.61
2019-05-10T01:53:19.054Z,99762.26
2019-05-10T01:55:52.094Z,99760.06
2019-05-10T01:58:17.647Z,99753.21
2019-05-10T02:00:46.071Z,99758.03
2019-05-10T02:03:14.585Z,99759.82
2019-05-10T02:05:43.004Z,99764.61
2019-05-10T02:08:11.516Z,99769.11
2019-05-10T02:10:40.809Z,99772.03
2019-05-10T02:13:10.948Z,99778.72
2019-05-10T02:15:39.445Z,99792.69
2019-05-10T02:18:07.853Z,99789.25
2019-05-10T02:20:37.814Z,99791.95
2019-05-10T02:23:06.211Z,99788.41
2019-05-10T02:25:34.794Z,99784.56
2019-05-10T02:28:03.247Z,99789.97
2019-05-10T02:30:31.698Z,99788.63
2019-05-10T02:33:00.120Z,99787.48
2019-05-10T02:35:28.571Z,99784.39
2019-05-10T02:38:00.188Z,99748.55
2019-05-10T02:40:28.632Z,99789.69
2019-05-10T02:42:59.442Z,99794.81
2019-05-10T02:45:27.952Z,99796.29
2019-05-10T02:47:56.397Z,99802.77
2019-05-10T02:50:24.834Z,99797.27
2019-05-10T02:52:53.832Z,99799.59
2019-05-10T02:55:23.712Z,99800.14
2019-05-10T02:57:57.633Z,99808.26
2019-05-10T03:00:26.724Z,99798.48
2019-05-10T03:02:56.581Z,99785.80
2019-05-10T03:05:27.600Z,99796.84
2019-05-10T03:07:58.306Z,99803.09
2019-05-10T03:10:29.778Z,99798.64
2019-05-10T03:12:59.711Z,99804.49
2019-05-10T03:15:31.197Z,99812.81
2019-05-10T03:18:02.909Z,99817.39
2019-05-10T03:20:33.615Z,99823.65
2019-05-10T03:23:04.167Z,99822.19
2019-05-10T03:25:34.111Z,99829.59
2019-05-10T03:28:02.529Z,99826.55
2019-05-10T03:30:31.049Z,99832.50
2019-05-10T03:32:59.638Z,99837.57
2019-05-10T03:35:28.337Z,99837.98
2019-05-10T03:37:56.892Z,99837.78
2019-05-10T03:40:25.341Z,99838.60
2019-05-10T03:42:53.941Z,99841.21
2019-05-10T03:45:22.441Z,99840.77
2019-05-10T03:47:50.842Z,99846.89
2019-05-10T03:50:19.240Z,99846.38
2019-05-10T03:52:52.125Z,99824.67
2019-05-10T03:55:17.806Z,99852.97
2019-05-10T03:57:46.301Z,99856.08
2019-05-10T04:00:15.071Z,99855.13
2019-05-10T04:02:43.581Z,99859.08
2019-05-10T04:05:14.987Z,99859.48
2019-05-10T04:07:44.935Z,99861.73
2019-05-10T04:10:14.149Z,99862.23
2019-05-10T04:12:42.542Z,99865.43
2019-05-10T04:15:12.978Z,99865.52
2019-05-10T04:17:41.468Z,99866.27
2019-05-10T04:20:10.297Z,99872.78
2019-05-10T04:22:38.753Z,99866.00
2019-05-10T04:25:09.194Z,99866.00
2019-05-10T04:27:37.608Z,99882.81
2019-05-10T04:30:07.671Z,99885.91
2019-05-10T04:32:37.795Z,99890.89
2019-05-10T04:35:07.727Z,99887.23
2019-05-10T04:37:36.177Z,99893.53
2019-05-10T04:40:09.273Z,99896.43
2019-05-10T04:42:37.844Z,99893.73
2019-05-10T04:45:07.091Z,99896.57
2019-05-10T04:47:35.568Z,99904.47
2019-05-10T04:50:05.707Z,99903.84
2019-05-10T04:52:34.106Z,99891.78
2019-05-10T04:55:02.551Z,99902.15
2019-05-10T04:57:47.973Z,99908.61
2019-05-10T05:00:01.151Z,99913.22
2019-05-10T05:02:32.396Z,99915.09
2019-05-10T05:05:02.622Z,99918.98
2019-05-10T05:07:32.602Z,99917.45
2019-05-10T05:10:01.174Z,99917.91
2019-05-10T05:12:29.596Z,99916.42
2019-05-10T05:14:59.554Z,99920.38
2019-05-10T05:17:27.961Z,99920.72
2019-05-10T05:19:58.045Z,99926.47
2019-05-10T05:22:26.479Z,99928.89
2019-05-10T05:25:00.444Z,99932.64
2019-05-10T05:27:27.067Z,99931.51
2019-05-10T05:29:55.692Z,99931.01
2019-05-10T05:32:24.120Z,99935.98
2019-05-10T05:34:52.720Z,99938.91
2019-05-10T05:37:21.230Z,99937.75
2019-05-10T05:39:49.601Z,99948.87
2019-05-10T05:42:22.304Z,99952.28
2019-05-10T05:44:48.141Z,99951.05
2019-05-10T05:47:18.277Z,99953.61
2019-05-10T05:49:46.686Z,99957.84
2019-05-10T05:52:15.982Z,99965.52
2019-05-10T05:54:44.428Z,99964.72
2019-05-10T05:57:12.867Z,99959.67
2019-05-10T05:59:41.368Z,99961.91
2019-05-10T06:02:09.878Z,99968.03
2019-05-10T06:04:40.760Z,99971.19
2019-05-10T06:07:08.512Z,99968.29
2019-05-10T06:09:39.385Z,99967.26
2019-05-10T06:12:12.630Z,99967.46
2019-05-10T06:14:43.063Z,99971.63
2019-05-10T06:17:10.821Z,99973.77
2019-05-10T06:19:39.206Z,99971.03
2019-05-10T06:22:07.625Z,99982.98
2019-05-10T06:24:36.302Z,99986.67
2019-05-10T06:27:05.125Z,99982.91
2019-05-10T06:29:33.567Z,99981.92
2019-05-10T06:32:01.992Z,99985.13
2019-05-10T06:34:31.788Z,99989.07
2019-05-10T06:37:02.159Z,99988.38
2019-05-10T06:39:30.677Z,99988.46
2019-05-10T06:41:59.075Z,99992.69
2019-05-10T06:44:31.144Z,99990.41
2019-05-10T06:47:02.033Z,99989.05
2019-05-10T06:49:32.116Z,99997.65
2019-05-10T06:52:00.693Z,99997.97
2019-05-10T06:54:29.116Z,99997.16
2019-05-10T06:56:57.526Z,99997.94
2019-05-10T06:59:26.367Z,99999.21
2019-05-10T07:01:55.069Z,100001.55
2019-05-10T07:04:23.518Z,100000.08
2019-05-10T07:06:56.286Z,100004.00
2019-05-10T07:09:26.277Z,100009.36
2019-05-10T07:11:54.730Z,99999.03
2019-05-10T07:14:25.578Z,100012.03
2019-05-10T07:16:56.526Z,100017.34
2019-05-10T07:19:23.500Z,100024.11
2019-05-10T07:21:51.941Z,100024.16
2019-05-10T07:24:25.298Z,100032.19
2019-05-10T07:26:50.705Z,100033.84
2019-05-10T07:29:29.976Z,100042.28
2019-05-10T07:31:53.134Z,100033.45
2019-05-10T07:34:21.633Z,100042.38
2019-05-10T07:36:50.130Z,100037.95
2019-05-10T07:39:18.562Z,100036.70
2019-05-10T07:41:46.996Z,100037.25
2019-05-10T07:44:16.287Z,100043.99
2019-05-10T07:46:46.428Z,100049.21
2019-05-10T07:49:14.941Z,100042.39
2019-05-10T07:51:43.345Z,100048.91
2019-05-10T07:54:11.817Z,100044.09
2019-05-10T07:56:45.891Z,100049.34
2019-05-10T07:59:10.392Z,100054.29
2019-05-10T08:01:38.875Z,100049.44
2019-05-10T08:04:09.018Z,100052.45
2019-05-10T08:06:43.438Z,100054.05
2019-05-10T08:09:09.927Z,100061.13
2019-05-10T08:11:39.187Z,100068.36
2019-05-10T08:14:11.063Z,100066.78
2019-05-10T08:16:38.783Z,100073.28
2019-05-10T08:19:09.001Z,100079.80
2019-05-10T08:21:37.506Z,100072.58
2019-05-10T08:24:13.335Z,100067.50
2019-05-10T08:26:36.728Z,100066.09
2019-05-10T08:29:07.607Z,100068.09
2019-05-10T08:31:40.329Z,100068.64
2019-05-10T08:34:06.969Z,100071.16
2019-05-10T08:36:37.195Z,100072.73
2019-05-10T08:39:10.740Z,100081.41
2019-05-10T08:41:36.752Z,100069.31
2019-05-10T08:44:16.556Z,100042.36
2019-05-10T08:46:41.238Z,100064.97
2019-05-10T08:49:07.102Z,100074.67
2019-05-10T08:51:43.869Z,100074.37
2019-05-10T08:54:07.424Z,100077.36
2019-05-10T08:56:35.797Z,100067.95
2019-05-10T08:59:09.398Z,100071.67
2019-05-10T09:01:44.804Z,100081.88
2019-05-10T09:04:07.133Z,100083.91
2019-05-10T09:06:36.370Z,100074.52
2019-05-10T09:09:08.519Z,100079.00
2019-05-10T09:11:37.147Z,100081.27
2019-05-10T09:14:12.329Z,100076.98
2019-05-10T09:16:43.387Z,100079.97
2019-05-10T09:19:07.952Z,100079.42
2019-05-10T09:21:40.962Z,100080.32
2019-05-10T09:24:12.842Z,100090.00
2019-05-10T09:26:41.909Z,100089.16
2019-05-10T09:29:12.152Z,100095.37
2019-05-10T09:31:48.619Z,100094.20
2019-05-10T09:34:12.496Z,100087.72
2019-05-10T09:36:44.943Z,100084.73
2019-05-10T09:39:17.554Z,100093.28
2019-05-10T09:41:42.122Z,100088.01
2019-05-10T09:44:13.087Z,100092.05
2019-05-10T09:46:42.342Z,100093.70
2019-05-10T09:49:15.602Z,100087.31
2019-05-10T09:51:42.301Z,100087.31
2019-05-10T09:54:11.138Z,100088.25
2019-05-10T09:56:44.291Z,100087.75
2019-05-10T09:59:09.766Z,100085.98
2019-05-10T10:01:38.238Z,100095.98
2019-05-10T10:04:06.773Z,100095.41
2019-05-10T10:06:36.954Z,100093.48
2019-05-10T10:09:10.897Z,100094.47
2019-05-10T10:11:38.167Z,100090.77
2019-05-10T10:14:07.931Z,100095.53
2019-05-10T10:16:36.762Z,100087.13
2019-05-10T10:19:07.159Z,100099.78
2019-05-10T10:21:38.927Z,100100.17
2019-05-10T10:24:15.694Z,100107.84
2019-05-10T10:26:38.005Z,100106.62
2019-05-10T10:29:07.360Z,100101.16
2019-05-10T10:31:48.288Z,100099.73
2019-05-10T10:34:07.594Z,100096.20
2019-05-10T10:36:40.108Z,100084.05
2019-05-10T10:39:09.080Z,100083.17
2019-05-10T10:41:37.499Z,100076.37
2019-05-10T10:44:08.259Z,100079.20
2019-05-10T10:46:36.184Z,100052.62
2019-05-10T10:49:05.531Z,100083.61
2019-05-10T10:51:34.645Z,100101.86
2019-05-10T10:54:03.553Z,100103.27
2019-05-10T10:56:31.948Z,100066.52
2019-05-10T10:59:01.927Z,100090.61
2019-05-10T11:01:46.170Z,100094.13
2019-05-10T11:04:07.862Z,100090.05
2019-05-10T11:06:32.522Z,100098.56
2019-05-10T11:09:01.865Z,100093.67
2019-05-10T11:11:38.804Z,100093.67
2019-05-10T11:14:07.323Z,100089.24
2019-05-10T11:16:32.714Z,100082.64
2019-05-10T11:19:03.804Z,100046.56
2019-05-10T11:21:33.480Z,100073.45
2019-05-10T11:24:01.735Z,100079.80
2019-05-10T11:26:32.786Z,100074.72
2019-05-10T11:29:01.337Z,100077.45
2019-05-10T11:31:31.201Z,100081.66
2019-05-10T11:34:01.850Z,100078.30
2019-05-10T11:36:31.236Z,100085.91
2019-05-10T11:39:01.562Z,100084.63
2019-05-10T11:41:31.665Z,100083.30
2019-05-10T11:44:05.461Z,100084.59
2019-05-10T11:46:31.075Z,100088.56
2019-05-10T11:49:01.730Z,100097.27
2019-05-10T11:51:31.526Z,100089.81
2019-05-10T11:54:00.119Z,100097.42
2019-05-10T11:56:32.382Z,100092.98
2019-05-10T11:59:02.492Z,100092.44
2019-05-10T12:01:31.197Z,100093.80
2019-05-10T12:04:04.740Z,100099.34
2019-05-10T12:06:32.002Z,100100.28
2019-05-10T12:09:06.606Z,100095.01
2019-05-10T12:11:43.792Z,100099.53
2019-05-10T12:14:05.603Z,100097.17
2019-05-10T12:16:35.796Z,100093.09
2019-05-10T12:19:14.906Z,100095.51
2019-05-10T12:21:34.529Z,100091.26
2019-05-10T12:24:26.363Z,100096.27
2019-05-10T12:27:13.878Z,100081.25
2019-05-10T12:29:12.292Z,100072.61
2019-05-10T12:31:36.363Z,100068.41
2019-05-10T12:34:09.050Z,100071.20
2019-05-10T12:36:34.971Z,100070.55
2019-05-10T12:39:06.783Z,100067.75
2019-05-10T12:41:39.703Z,100041.31
2019-05-10T12:44:07.406Z,100079.27
2019-05-10T12:46:41.393Z,100079.34
2019-05-10T12:49:07.433Z,100081.78
2019-05-10T12:51:36.019Z,100077.13
2019-05-10T12:54:04.614Z,100073.83
2019-05-10T12:56:35.159Z,100073.11
2019-05-10T12:59:03.226Z,100076.03
2019-05-10T13:01:34.380Z,100083.11
2019-05-10T13:04:13.885Z,100081.67
2019-05-10T13:06:36.157Z,100086.91
2019-05-10T13:09:09.090Z,100078.22
2019-05-10T13:11:37.658Z,100084.84
2019-05-10T13:14:09.721Z,100078.58
2019-05-10T13:16:38.222Z,100081.37
2019-05-10T13:19:06.825Z,100081.37
2019-05-10T13:21:35.273Z,100077.83
2019-05-10T13:24:06.861Z,100084.48
2019-05-10T13:26:37.881Z,100079.08
2019-05-10T13:29:10.310Z,100084.33
2019-05-10T13:31:42.897Z,100080.80
2019-05-10T13:34:10.386Z,100085.77
2019-05-10T13:36:39.338Z,100091.14
2019-05-10T13:39:12.344Z,100082.59
2019-05-10T13:41:40.852Z,100087.58
2019-05-10T13:44:11.662Z,100090.25
2019-05-10T13:46:39.777Z,100088.47
2019-05-10T13:49:08.447Z,100086.06
2019-05-10T13:51:36.961Z,100088.88
2019-05-10T13:54:08.280Z,100088.95
2019-05-10T13:56:36.705Z,100083.23
2019-05-10T13:59:15.815Z,100055.88
2019-05-10T14:01:35.258Z,100083.48
2019-05-10T14:04:04.391Z,100086.42
2019-05-10T14:06:32.862Z,100061.75
2019-05-10T14:09:02.996Z,100082.72
2019-05-10T14:11:34.235Z,100086.82
2019-05-10T14:14:01.790Z,100093.17
2019-05-10T14:16:30.499Z,100091.19
2019-05-10T14:18:58.893Z,100087.67
2019-05-10T14:21:30.346Z,100094.50
2019-05-10T14:23:58.725Z,100090.55
2019-05-10T14:26:27.130Z,100087.05
2019-05-10T14:28:55.637Z,100082.62
2019-05-10T14:31:26.207Z,100089.18
2019-05-10T14:36:25.005Z,100079.69
2019-05-10T14:38:56.040Z,100081.20
2019-05-10T14:41:23.720Z,100077.81
2019-05-10T14:43:52.152Z,100075.55
2019-05-10T14:46:20.633Z,100078.05
2019-05-10T14:48:49.054Z,100078.33
2019-05-10T14:57:01.503Z,100087.01
2019-05-10T15:02:22.792Z,100083.05
2019-05-10T15:04:52.252Z,100072.64
2019-05-10T15:07:20.666Z,100087.70
2019-05-10T15:09:54.190Z,100099.06
2019-05-10T15:12:22.506Z,100094.39
2019-05-10T15:14:49.523Z,100094.16
2019-05-10T15:17:20.080Z,100098.05
2019-05-10T15:19:56.260Z,100101.45
2019-05-10T15:22:22.901Z,100099.13
2019-05-10T15:24:48.345Z,100096.50
2019-05-10T15:27:21.796Z,100089.98
2019-05-10T15:29:46.930Z,100091.13
2019-05-10T15:32:15.338Z,100085.91
2019-05-10T15:35:04.271Z,100079.45
2019-05-10T15:37:17.767Z,100077.89
2019-05-10T15:39:49.303Z,100079.47
2019-05-10T15:42:21.932Z,100082.78
2019-05-10T15:44:49.526Z,100084.69
2019-05-10T15:47:20.351Z,100089.06
2019-05-10T15:49:54.514Z,100087.98
2019-05-10T15:52:23.380Z,100089.59
2019-05-10T15:54:50.075Z,100088.44
2019-05-10T15:57:20.362Z,100088.13
2019-05-10T15:59:56.779Z,100091.56
2019-05-10T16:02:21.650Z,100094.80
2019-05-10T16:04:50.074Z,100094.27
2019-05-10T16:07:18.483Z,100093.14
2019-05-10T16:09:50.040Z,100094.17
2019-05-10T16:12:17.143Z,100090.81
2019-05-10T16:14:47.197Z,100089.95
2019-05-10T16:17:23.794Z,100086.47
2019-05-10T16:19:58.904Z,100088.33
2019-05-10T16:22:25.353Z,100085.23
2019-05-10T16:25:00.973Z,100088.42
2019-05-10T16:27:24.093Z,100084.48
2019-05-10T16:29:52.602Z,100094.45
2019-05-10T16:32:21.067Z,100070.99
2019-05-10T16:34:49.605Z,100092.56
2019-05-10T16:37:17.972Z,100092.07
2019-05-10T16:39:46.452Z,100093.63
2019-05-10T16:42:16.395Z,100079.82
2019-05-10T16:44:44.777Z,100089.18
2019-05-10T16:47:13.197Z,100096.23
2019-05-10T16:49:41.682Z,100084.36
2019-05-10T16:52:10.147Z,100077.83
2019-05-10T16:54:41.399Z,100083.52
2019-05-10T16:57:11.120Z,100080.99
2019-05-10T16:59:39.436Z,100086.02
2019-05-10T17:02:07.882Z,100082.42
2019-05-10T17:04:37.459Z,100079.22
2019-05-10T17:07:06.478Z,100075.69
2019-05-10T17:09:34.855Z,100082.89
2019-05-10T17:12:06.673Z,100082.27
2019-05-10T17:14:35.046Z,100083.55
2019-05-10T17:17:04.302Z,100080.80
2019-05-10T17:19:34.200Z,100062.55
2019-05-10T17:22:02.970Z,100070.83
2019-05-10T17:24:31.394Z,100073.07
2019-05-10T17:27:01.476Z,100072.53
2019-05-10T17:29:32.546Z,100075.47
2019-05-10T17:32:00.945Z,100046.21
2019-05-10T17:34:34.118Z,100069.84
2019-05-10T17:37:04.396Z,100076.40
2019-05-10T17:39:34.191Z,100070.58
2019-05-10T17:42:04.666Z,100071.34
2019-05-10T17:44:32.744Z,100070.72
2019-05-10T17:47:01.128Z,100067.14
2019-05-10T17:49:29.664Z,100063.42
2019-05-10T17:51:58.230Z,100057.35
2019-05-10T17:54:26.724Z,100053.59
2019-05-10T17:56:55.222Z,100050.35
2019-05-10T17:59:23.641Z,100052.01
2019-05-10T18:01:53.055Z,100052.89
2019-05-10T18:04:21.588Z,100053.25
2019-05-10T18:06:50.038Z,100056.90
2019-05-10T18:09:19.939Z,100050.98
2019-05-10T18:11:48.456Z,100050.97
2019-05-10T18:14:17.827Z,100057.47
2019-05-10T18:16:48.566Z,100051.86
2019-05-10T18:19:23.966Z,100046.30
2019-05-10T18:21:54.797Z,100054.89
2019-05-10T18:24:23.723Z,100065.41
2019-05-10T18:26:53.850Z,100059.59
2019-05-10T18:29:22.266Z,100063.59
2019-05-10T18:31:55.761Z,100070.05
2019-05-10T18:34:26.398Z,100074.64
2019-05-10T18:36:58.813Z,100072.38
2019-05-10T18:39:27.181Z,100071.39
2019-05-10T18:41:55.590Z,100076.41
2019-05-10T18:44:24.019Z,100071.36
2019-05-10T18:46:52.521Z,100079.15
2019-05-10T18:49:21.111Z,100069.77
2019-05-10T18:51:51.298Z,100071.59
2019-05-10T18:54:19.714Z,100073.38
2019-05-10T18:56:48.210Z,100080.07
2019-05-10T18:59:18.463Z,100085.40
2019-05-10T19:01:50.079Z,100086.50
2019-05-10T19:04:20.905Z,100087.64
2019-05-10T19:06:49.898Z,100084.00
2019-05-10T19:09:19.417Z,100096.73
2019-05-10T19:11:47.822Z,100094.94
2019-05-10T19:14:16.338Z,100092.92
2019-05-10T19:16:44.720Z,100090.98
2019-05-10T19:19:15.550Z,100093.63
2019-05-10T19:21:43.944Z,100084.81
2019-05-10T19:24:13.882Z,100086.50
2019-05-10T19:26:42.299Z,100085.66
2019-05-10T19:29:10.827Z,100094.66
2019-05-10T19:31:43.979Z,100108.32
2019-05-10T19:34:15.188Z,100100.97
2019-05-10T19:36:42.518Z,100107.03
2019-05-10T19:39:11.007Z,100108.39
2019-05-10T19:41:43.696Z,100111.11
2019-05-10T19:44:12.079Z,100111.11
2019-05-10T19:46:40.911Z,100107.77
2019-05-10T19:49:13.252Z,100108.54
2019-05-10T19:51:42.032Z,100104.91
2019-05-10T19:54:13.608Z,100116.22
2019-05-10T19:56:39.904Z,100113.64
2019-05-10T19:59:11.654Z,100113.02
2019-05-10T20:01:38.451Z,100112.32
2019-05-10T20:04:09.377Z,100113.09
2019-05-10T20:06:37.178Z,100114.59
2019-05-10T20:09:10.170Z,100121.27
2019-05-10T20:11:38.647Z,100129.56
2019-05-10T20:14:07.653Z,100126.98
2019-05-10T20:16:52.300Z,100119.27
2019-05-10T20:19:09.488Z,100112.89
2019-05-10T20:21:40.590Z,100108.81
2019-05-10T20:24:09.278Z,100102.02
2019-05-10T20:26:37.848Z,100104.03
2019-05-10T20:29:06.245Z,100104.55
2019-05-10T20:31:34.636Z,100095.23
2019-05-10T20:34:03.043Z,100096.29
2019-05-10T20:36:31.565Z,100096.00
2019-05-10T20:39:02.255Z,100093.57
2019-05-10T20:41:30.719Z,100089.80
2019-05-10T20:43:59.657Z,100083.44
2019-05-10T20:46:28.079Z,100086.97
2019-05-10T20:48:56.540Z,100090.53
2019-05-10T20:51:24.938Z,100102.23
2019-05-10T20:53:53.443Z,100096.18
2019-05-10T20:56:21.877Z,100095.59
2019-05-10T20:58:50.323Z,100101.09
2019-05-10T21:01:18.724Z,100098.84
2019-05-10T21:03:47.382Z,100092.58
2019-05-10T21:06:16.000Z,100091.22
2019-05-10T21:08:44.392Z,100098.84
2019-05-10T21:11:12.994Z,100096.43
2019-05-10T21:13:41.406Z,100092.66
2019-05-10T21:16:10.097Z,100080.72
2019-05-10T21:18:38.487Z,100085.64
2019-05-10T21:21:08.494Z,100080.21
2019-05-10T21:23:36.874Z,100081.34
2019-05-10T21:26:06.853Z,100078.01
2019-05-10T21:28:35.819Z,100072.28
2019-05-10T21:31:04.242Z,100074.41
2019-05-10T21:33:32.720Z,100073.05
2019-05-10T21:36:01.140Z,100076.06
2019-05-10T21:38:33.992Z,100073.34
2019-05-10T21:41:02.496Z,100070.33
2019-05-10T21:43:31.100Z,100062.77
2019-05-10T21:45:59.499Z,100039.48
2019-05-10T21:48:28.381Z,100057.64
2019-05-10T21:50:57.681Z,100057.05
2019-05-10T21:53:26.206Z,100060.28
2019-05-10T21:55:54.624Z,100046.91
2019-05-10T21:58:23.362Z,100047.13
2019-05-10T22:00:53.649Z,100043.61
2019-05-10T22:03:22.162Z,100044.05
2019-05-10T22:05:57.974Z,100042.91
2019-05-10T22:08:26.570Z,100038.75
2019-05-10T22:10:56.689Z,100043.05
2019-05-10T22:13:25.126Z,100038.13
2019-05-10T22:15:53.576Z,100036.15
2019-05-10T22:18:22.338Z,100038.56
2019-05-10T22:20:50.804Z,100039.30
2019-05-10T22:23:19.256Z,100028.58
2019-05-10T22:25:47.686Z,100023.91
2019-05-10T22:28:16.115Z,100024.94
2019-05-10T22:30:45.508Z,100022.23
2019-05-10T22:33:15.424Z,100011.07
2019-05-10T22:35:43.896Z,100005.64
2019-05-10T22:38:12.430Z,100000.72
2019-05-10T22:40:40.930Z,99996.66
2019-05-10T22:43:09.343Z,99996.44
2019-05-10T22:45:37.833Z,100001.97
2019-05-10T22:48:06.229Z,99992.98
2019-05-10T22:50:34.677Z,99992.25
2019-05-10T22:53:03.272Z,99993.83
2019-05-10T22:55:31.718Z,99986.05
2019-05-10T22:58:00.117Z,99984.18
2019-05-10T23:00:28.685Z,99982.12
2019-05-10T23:02:57.117Z,99986.93
2019-05-10T23:05:25.542Z,99988.21
2019-05-10T23:07:53.963Z,99987.15
2019-05-10T23:10:22.513Z,99989.64
2019-05-10T23:12:50.969Z,99978.34
2019-05-10T23:15:19.400Z,99988.77
2019-05-10T23:17:47.824Z,99963.06
2019-05-10T23:20:17.940Z,100010.97
2019-05-10T23:22:46.367Z,100011.48
2019-05-10T23:25:14.797Z,100001.91
2019-05-10T23:27:43.290Z,99993.14
2019-05-10T23:30:11.934Z,99997.35
2019-05-10T23:32:40.525Z,99988.39
2019-05-10T23:35:09.072Z,99986.63
2019-05-10T23:37:37.507Z,99981.34
2019-05-10T23:40:07.868Z,99983.44
2019-05-10T23:42:36.346Z,99973.56
2019-05-10T23:45:06.793Z,99959.29
2019-05-10T23:47:35.237Z,99947.08
2019-05-10T23:50:05.247Z,99951.15
2019-05-10T23:52:33.690Z,99925.53
2019-05-10T23:55:02.127Z,99932.29
2019-05-10T23:57:30.574Z,99915.59
2019-05-10T23:59:58.998Z,99907.75
